Time;durP1;ratioP1;P1;durP2;ratioP2;P2;SDS_P1;SDS_P2;PMS_P1;PMS_P2;Temp;Humidity;BMP_temperature;BMP_pressure;BME280_temperature;BME280_humidity;BME280_pressure;Samples;Min_cycle;Max_cycle;Signal;HPM_P1;HPM_P2
2024/01/07 00:02:09;;;;;;;6.30;3.00;;;;;;;6.37;85.42;98804.94;79861;1291;3013143;-67
2024/01/07 00:04:35;;;;;;;7.50;3.50;;;;;;;6.85;84.45;98806.50;79812;1291;3011454;-68
2024/01/07 00:07:06;;;;;;;12.20;3.50;;;;;;;7.48;82.33;98808.85;78578;1292;3026646;-68
2024/01/07 00:09:33;;;;;;;9.50;4.20;;;;;;;7.61;81.13;98814.77;79778;1295;3013034;-68
2024/01/07 00:12:02;;;;;;;10.50;3.60;;;;;;;7.55;81.23;98821.52;79173;1296;3012005;-66
2024/01/07 00:14:29;;;;;;;9.80;4.20;;;;;;;7.45;81.76;98823.46;79671;1291;3013082;-65
2024/01/07 00:16:56;;;;;;;7.70;3.90;;;;;;;7.41;82.05;98828.41;79729;1291;3011610;-65
2024/01/07 00:19:23;;;;;;;9.80;4.30;;;;;;;7.31;81.71;98827.24;78505;1291;3026050;-66
2024/01/07 00:21:50;;;;;;;10.50;4.70;;;;;;;7.20;81.79;98833.10;79761;1291;3013259;-66
2024/01/07 00:24:17;;;;;;;18.70;7.60;;;;;;;6.99;82.26;98842.28;79772;1295;3011673;-66
2024/01/07 00:26:45;;;;;;;12.60;5.90;;;;;;;6.78;83.27;98840.84;78503;1295;3026016;-67
2024/01/07 00:29:12;;;;;;;13.60;5.80;;;;;;;6.66;83.84;98843.91;79741;1296;3014662;-64
2024/01/07 00:31:39;;;;;;;10.90;4.90;;;;;;;6.68;83.96;98837.90;79700;1296;3011722;-68
2024/01/07 00:34:08;;;;;;;14.10;4.80;;;;;;;7.23;82.96;98838.31;78513;1295;3050573;-71
2024/01/07 00:36:35;;;;;;;9.20;4.50;;;;;;;7.91;81.43;98834.23;79767;1295;3012473;-68
2024/01/07 00:39:02;;;;;;;10.30;5.20;;;;;;;8.00;79.75;98836.13;79658;1296;3013227;-65
2024/01/07 00:41:30;;;;;;;13.10;6.00;;;;;;;7.78;79.49;98845.27;78564;1295;3050454;-67
2024/01/07 00:43:57;;;;;;;12.60;6.50;;;;;;;7.59;80.06;98848.08;79877;1291;3018761;-64
2024/01/07 00:46:24;;;;;;;17.00;7.70;;;;;;;7.02;81.38;98849.59;79772;1295;3011844;-67
2024/01/07 00:48:52;;;;;;;18.50;6.60;;;;;;;6.77;82.84;98847.33;78533;1292;3026094;-66
2024/01/07 00:51:18;;;;;;;20.30;8.10;;;;;;;6.55;83.97;98849.89;79764;1292;3013513;-68
2024/01/07 00:53:45;;;;;;;19.60;9.40;;;;;;;6.49;84.29;98851.96;79639;1297;3013239;-70
2024/01/07 00:56:13;;;;;;;24.70;11.30;;;;;;;6.40;84.88;98853.16;78513;1291;3026752;-67
2024/01/07 00:58:39;;;;;;;21.50;8.40;;;;;;;6.36;85.35;98852.48;79748;1295;3013200;-69
2024/01/07 01:01:06;;;;;;;20.80;10.30;;;;;;;6.84;84.55;98854.41;79802;1295;3011745;-67
2024/01/07 01:03:34;;;;;;;25.70;12.00;;;;;;;7.39;82.16;98859.37;78492;1291;3026795;-69
2024/01/07 01:06:02;;;;;;;25.60;12.70;;;;;;;7.65;81.89;98861.40;79843;1293;3012925;-68
2024/01/07 01:08:29;;;;;;;31.50;15.70;;;;;;;7.57;80.98;98856.08;79687;1291;3011539;-70
2024/01/07 01:10:57;;;;;;;27.10;13.50;;;;;;;7.35;81.00;98854.88;78502;1296;3049903;-65
2024/01/07 01:13:24;;;;;;;25.40;13.00;;;;;;;7.27;81.55;98854.63;79840;1296;3012796;-67
2024/01/07 01:15:50;;;;;;;26.70;12.90;;;;;;;7.19;81.56;98859.45;79748;1296;3012899;-68
2024/01/07 01:18:18;;;;;;;25.70;11.70;;;;;;;7.10;81.66;98861.73;78486;1291;3025942;-63
2024/01/07 01:20:45;;;;;;;29.60;12.70;;;;;;;6.99;82.01;98863.85;79749;1291;3013152;-64
2024/01/07 01:23:12;;;;;;;27.40;12.50;;;;;;;6.93;82.29;98858.15;79697;1291;3013475;-67
2024/01/07 01:25:40;;;;;;;27.40;11.40;;;;;;;6.88;82.42;98854.73;78318;1297;3049592;-66
2024/01/07 01:28:07;;;;;;;18.60;8.00;;;;;;;6.87;82.43;98855.85;79754;1294;3012916;-66
2024/01/07 01:30:33;;;;;;;23.80;10.50;;;;;;;7.42;81.64;98858.16;79730;1296;3011393;-64
2024/01/07 01:33:02;;;;;;;26.30;10.00;;;;;;;8.04;79.74;98857.17;78456;1296;3026239;-66
2024/01/07 01:35:29;;;;;;;21.30;11.10;;;;;;;8.16;78.86;98850.87;79729;1291;3013676;-65
2024/01/07 01:37:55;;;;;;;25.50;11.80;;;;;;;8.13;79.23;98851.02;79737;1296;3011932;-65
2024/01/07 01:40:23;;;;;;;22.40;10.90;;;;;;;7.98;79.17;98858.21;78552;1297;3049181;-67
2024/01/07 01:42:49;;;;;;;24.40;12.30;;;;;;;7.64;79.22;98855.67;79761;1295;3019363;-66
2024/01/07 01:45:16;;;;;;;26.40;12.00;;;;;;;7.46;79.89;98850.45;79703;1296;3011626;-67
2024/01/07 01:47:45;;;;;;;23.00;11.90;;;;;;;7.25;80.77;98847.60;78526;1291;3051002;-67
2024/01/07 01:50:12;;;;;;;26.60;12.40;;;;;;;7.13;81.21;98849.38;79781;1291;3013786;-69
2024/01/07 01:52:39;;;;;;;24.60;13.10;;;;;;;7.04;81.82;98852.46;79699;1291;3011588;-65
2024/01/07 01:55:07;;;;;;;21.50;12.00;;;;;;;6.97;82.07;98850.92;78531;1291;3049503;-66
2024/01/07 01:57:37;;;;;;;21.50;10.00;;;;;;;6.92;82.48;98845.65;79687;1297;3020816;-65
2024/01/07 02:00:06;;;;;;;18.00;9.00;;;;;;;7.41;81.60;98846.34;79165;1293;3013463;-67
2024/01/07 02:02:34;;;;;;;20.60;9.40;;;;;;;7.97;79.86;98846.40;79477;1291;3013170;-66
2024/01/07 02:05:02;;;;;;;17.30;9.00;;;;;;;8.10;79.13;98846.89;79597;1291;3011817;-67
2024/01/07 02:07:30;;;;;;;17.10;9.20;;;;;;;8.00;79.11;98844.34;78491;1296;3047887;-65
2024/01/07 02:09:57;;;;;;;21.30;9.50;;;;;;;7.88;79.33;98839.46;79766;1297;3018447;-66
2024/01/07 02:12:23;;;;;;;25.30;11.30;;;;;;;7.68;79.35;98838.02;79698;1291;3013306;-67
2024/01/07 02:14:52;;;;;;;20.70;10.10;;;;;;;7.43;79.91;98832.33;78568;1296;3026002;-67
2024/01/07 02:17:19;;;;;;;21.40;10.60;;;;;;;7.29;80.42;98822.12;79723;1292;3013093;-67
2024/01/07 02:19:45;;;;;;;22.30;10.50;;;;;;;7.11;80.86;98827.00;79629;1297;3012912;-66
2024/01/07 02:22:13;;;;;;;21.00;10.80;;;;;;;6.92;81.51;98833.25;78400;1291;3025599;-66
2024/01/07 02:24:40;;;;;;;19.70;10.60;;;;;;;6.80;82.14;98831.84;79647;1291;3013534;-66
2024/01/07 02:27:06;;;;;;;18.50;11.20;;;;;;;6.58;82.88;98829.23;79744;1291;3012937;-67
2024/01/07 02:29:34;;;;;;;20.60;10.60;;;;;;;6.40;84.23;98826.48;78424;1294;3028559;-66
2024/01/07 02:32:01;;;;;;;23.90;13.60;;;;;;;6.97;83.08;98830.19;79737;1291;3013144;-67
2024/01/07 02:34:28;;;;;;;24.30;13.50;;;;;;;7.56;81.32;98826.70;79719;1291;3011565;-69
2024/01/07 02:36:55;;;;;;;26.90;15.20;;;;;;;7.70;80.68;98827.79;78465;1291;3026615;-66
2024/01/07 02:39:22;;;;;;;27.10;15.80;;;;;;;7.52;80.31;98840.36;79718;1291;3013426;-65
2024/01/07 02:41:49;;;;;;;29.90;17.00;;;;;;;7.32;80.73;98853.01;79700;1291;3012868;-66
2024/01/07 02:44:18;;;;;;;34.40;17.50;;;;;;;7.09;81.17;98859.16;78332;1297;3052207;-67
2024/01/07 02:46:46;;;;;;;36.70;20.00;;;;;;;6.86;82.08;98863.02;79699;1293;3018442;-67
2024/01/07 02:49:13;;;;;;;39.40;20.90;;;;;;;6.69;82.92;98864.84;79710;1291;3011861;-66
2024/01/07 02:51:42;;;;;;;33.80;18.70;;;;;;;6.63;83.44;98859.71;78433;1295;3050754;-67
2024/01/07 02:54:09;;;;;;;33.60;19.50;;;;;;;6.59;83.59;98858.22;79788;1291;3013901;-68
2024/01/07 02:56:36;;;;;;;37.70;17.40;;;;;;;6.52;83.56;98863.11;79716;1291;3011653;-67
2024/01/07 02:59:04;;;;;;;23.60;12.70;;;;;;;6.39;83.55;98861.55;78470;1291;3050774;-69
2024/01/07 03:01:31;;;;;;;23.60;12.70;;;;;;;6.84;83.35;98863.81;79790;1296;3013917;-66
2024/01/07 03:03:58;;;;;;;20.80;11.60;;;;;;;7.39;81.42;98868.58;79808;1291;3011793;-66
2024/01/07 03:06:28;;;;;;;21.70;12.70;;;;;;;7.44;80.62;98871.98;78512;1291;3048160;-66
2024/01/07 03:08:55;;;;;;;25.60;12.70;;;;;;;7.25;80.65;98873.77;79835;1291;3013345;-64
2024/01/07 03:11:22;;;;;;;23.20;13.10;;;;;;;6.96;81.11;98874.50;79850;1296;3011497;-65
2024/01/07 03:13:50;;;;;;;27.00;14.10;;;;;;;6.83;81.92;98877.80;78549;1296;3051505;-66
2024/01/07 03:16:21;;;;;;;33.80;15.80;;;;;;;6.65;82.25;98877.00;79705;1296;3013593;-66
2024/01/07 03:18:49;;;;;;;41.00;19.60;;;;;;;6.40;82.86;98879.23;78488;1296;3056391;-66
2024/01/07 03:21:19;;;;;;;37.10;21.40;;;;;;;6.13;83.74;98877.33;79744;1294;3018465;-67
2024/01/07 03:23:49;;;;;;;35.90;20.90;;;;;;;5.96;84.74;98878.85;79240;1294;3011774;-66
2024/01/07 03:26:16;;;;;;;33.10;19.90;;;;;;;5.67;85.61;98878.77;79954;1297;3014793;-67
2024/01/07 03:28:44;;;;;;;28.40;13.60;;;;;;;5.63;86.06;98880.49;79678;1294;3012135;-66
2024/01/07 03:31:13;;;;;;;25.50;14.60;;;;;;;6.12;84.86;98884.85;78705;1291;3068870;-65
2024/01/07 03:33:40;;;;;;;31.50;15.80;;;;;;;6.52;82.65;98886.75;79934;1291;3013369;-67
2024/01/07 03:36:12;;;;;;;29.40;15.00;;;;;;;6.52;82.22;98885.90;79824;1295;3011884;-63
2024/01/07 03:38:41;;;;;;;29.40;15.10;;;;;;;6.44;82.43;98887.00;78606;1295;3052265;-67
2024/01/07 03:41:08;;;;;;;25.90;14.70;;;;;;;6.11;82.54;98889.05;79777;1296;3012968;-66
2024/01/07 03:43:35;;;;;;;25.70;15.30;;;;;;;5.91;83.11;98890.23;79711;1295;3011718;-66
2024/01/07 03:46:03;;;;;;;23.30;14.40;;;;;;;5.73;83.26;98886.28;78445;1291;3068338;-67
2024/01/07 03:48:30;;;;;;;25.10;15.40;;;;;;;5.49;83.89;98887.25;79771;1291;3019286;-67
2024/01/07 03:50:56;;;;;;;27.20;16.10;;;;;;;5.15;85.09;98888.02;79740;1297;3011861;-65
2024/01/07 03:53:24;;;;;;;25.50;13.90;;;;;;;4.98;86.07;98891.60;78382;1295;3028740;-65
2024/01/07 03:55:51;;;;;;;24.30;12.20;;;;;;;4.95;85.83;98895.90;79714;1297;3013150;-68
2024/01/07 03:58:18;;;;;;;18.60;10.40;;;;;;;4.79;86.06;98906.55;79711;1296;3011995;-65
2024/01/07 04:00:46;;;;;;;20.70;11.00;;;;;;;5.26;85.39;98901.08;78470;1291;3029049;-63
2024/01/07 04:03:12;;;;;;;20.20;9.90;;;;;;;5.73;83.10;98900.15;79824;1291;3013029;-66
2024/01/07 04:05:39;;;;;;;19.50;10.90;;;;;;;5.63;82.51;98900.84;79774;1294;3013769;-68
2024/01/07 04:08:09;;;;;;;18.90;10.40;;;;;;;5.53;82.31;98903.39;78495;1291;3027863;-70
2024/01/07 04:10:37;;;;;;;15.00;8.80;;;;;;;5.29;82.50;98902.31;79821;1292;3012979;-65
2024/01/07 04:13:06;;;;;;;13.90;8.60;;;;;;;5.09;82.72;98899.23;78636;1294;3028869;-69
2024/01/07 04:15:32;;;;;;;16.70;8.50;;;;;;;4.79;83.20;98901.84;79736;1291;3018978;-66
2024/01/07 04:18:03;;;;;;;15.70;8.90;;;;;;;4.34;84.77;98915.67;79731;1291;3013770;-65
2024/01/07 04:20:31;;;;;;;13.20;8.50;;;;;;;4.25;85.63;98918.31;78477;1291;3056509;-67
2024/01/07 04:22:58;;;;;;;14.00;7.90;;;;;;;3.97;86.45;98931.62;79746;1294;3013352;-66
2024/01/07 04:25:24;;;;;;;13.10;8.40;;;;;;;3.93;86.96;98938.02;79721;1291;3013404;-67
2024/01/07 04:27:52;;;;;;;9.40;6.20;;;;;;;3.90;86.71;98943.16;78487;1295;3026568;-67
2024/01/07 04:30:19;;;;;;;10.80;6.80;;;;;;;4.15;86.15;98947.30;79739;1290;3013498;-69
2024/01/07 04:32:46;;;;;;;13.50;7.20;;;;;;;4.71;84.75;98947.85;79750;1295;3011791;-68
2024/01/07 04:35:13;;;;;;;16.40;7.10;;;;;;;4.95;83.74;98948.83;78520;1291;3026643;-66
2024/01/07 04:37:40;;;;;;;13.20;6.50;;;;;;;4.75;82.85;98959.30;79782;1296;3014041;-68
2024/01/07 04:40:07;;;;;;;10.10;6.80;;;;;;;4.45;83.39;98973.77;79735;1292;3013052;-69
2024/01/07 04:42:35;;;;;;;9.60;6.40;;;;;;;4.28;83.83;98973.46;78582;1295;3052270;-68
2024/01/07 04:45:02;;;;;;;13.70;6.20;;;;;;;4.26;84.15;98981.55;79760;1297;3020733;-66
2024/01/07 04:47:30;;;;;;;9.80;5.60;;;;;;;4.03;84.20;98986.52;79825;1291;3011644;-69
2024/01/07 04:49:58;;;;;;;12.90;6.20;;;;;;;3.90;84.73;98985.96;78615;1291;3055996;-66
2024/01/07 04:52:25;;;;;;;14.70;7.00;;;;;;;3.80;84.91;98984.45;79729;1291;3013487;-72
2024/01/07 04:54:53;;;;;;;15.10;8.30;;;;;;;3.71;85.14;98985.54;79704;1291;3013075;-69
2024/01/07 04:57:21;;;;;;;15.70;6.50;;;;;;;3.59;85.83;98984.63;78490;1296;3052441;-64
2024/01/07 04:59:49;;;;;;;13.30;6.40;;;;;;;4.04;85.21;98989.20;79712;1297;3018654;-66
2024/01/07 05:02:16;;;;;;;10.00;6.00;;;;;;;4.54;82.95;98990.75;79729;1296;3013234;-67
2024/01/07 05:04:44;;;;;;;10.40;5.60;;;;;;;4.62;82.15;98991.61;78538;1296;3056226;-66
2024/01/07 05:07:10;;;;;;;8.90;5.50;;;;;;;4.62;82.12;98986.41;79618;1296;3013638;-67
2024/01/07 05:09:37;;;;;;;10.20;5.00;;;;;;;4.34;81.59;98990.55;79701;1295;3011608;-67
2024/01/07 05:12:05;;;;;;;11.30;4.90;;;;;;;4.17;81.73;98996.99;78522;1294;3025742;-67
2024/01/07 05:15:22;;;;;;;8.80;5.80;;;;;;;4.00;82.04;99003.27;80244;1303;3012986;-64
2024/01/07 05:17:49;;;;;;;10.70;5.90;;;;;;;3.70;82.82;99003.43;79089;1304;3013286;-64
2024/01/07 05:20:16;;;;;;;10.70;6.00;;;;;;;3.54;83.61;99004.21;79124;1304;3011745;-66
2024/01/07 05:22:44;;;;;;;9.40;5.90;;;;;;;3.51;83.47;98999.48;77939;1304;3051186;-65
2024/01/07 05:25:11;;;;;;;8.60;5.60;;;;;;;3.36;83.68;98984.98;79160;1304;3018494;-66
2024/01/07 05:27:37;;;;;;;10.80;5.80;;;;;;;3.22;84.15;98982.75;78988;1304;3011972;-66
2024/01/07 05:30:07;;;;;;;12.10;6.20;;;;;;;3.23;84.09;98982.91;78037;1303;3028656;-64
2024/01/07 05:32:34;;;;;;;9.00;4.70;;;;;;;3.24;83.89;98988.91;79248;1298;3011819;-65
2024/01/07 05:35:01;;;;;;;9.70;5.50;;;;;;;3.78;82.84;98998.24;79390;1301;3011523;-66
2024/01/07 05:37:29;;;;;;;10.70;5.80;;;;;;;4.26;80.18;98998.36;78070;1304;3051991;-65
2024/01/07 05:39:55;;;;;;;9.30;5.20;;;;;;;4.12;79.21;98998.93;79355;1298;3013790;-63
2024/01/07 05:42:22;;;;;;;12.00;6.90;;;;;;;4.05;79.59;98996.97;79147;1299;3011831;-65
2024/01/07 05:44:50;;;;;;;11.50;6.40;;;;;;;4.08;80.20;99000.48;78164;1304;3028302;-65
2024/01/07 05:47:17;;;;;;;10.20;6.20;;;;;;;3.98;80.04;99006.41;79278;1303;3013415;-67
2024/01/07 05:49:43;;;;;;;11.60;6.70;;;;;;;3.59;80.24;99014.21;79561;1296;3013259;-67
2024/01/07 05:52:11;;;;;;;12.20;7.40;;;;;;;3.47;80.79;99015.19;78336;1298;3028671;-65
2024/01/07 05:54:40;;;;;;;13.60;7.70;;;;;;;3.40;81.15;99021.02;79585;1298;3013335;-66
2024/01/07 05:57:06;;;;;;;12.70;7.00;;;;;;;3.23;81.17;99025.83;79551;1296;3011641;-65
2024/01/07 05:59:34;;;;;;;12.20;6.50;;;;;;;2.99;81.27;99035.70;78419;1298;3049438;-70
2024/01/07 06:02:01;;;;;;;13.30;7.30;;;;;;;2.89;81.65;99044.37;79703;1295;3014317;-66
2024/01/07 06:04:28;;;;;;;12.00;7.00;;;;;;;2.83;81.59;99044.23;79705;1296;3011279;-65
2024/01/07 06:06:58;;;;;;;13.30;7.10;;;;;;;2.77;81.46;99038.39;78526;1298;3051899;-65
2024/01/07 06:09:25;;;;;;;11.50;7.00;;;;;;;2.68;81.10;99039.56;79717;1292;3013384;-65
2024/01/07 06:11:51;;;;;;;12.90;7.40;;;;;;;2.56;81.33;99042.95;79754;1292;3013713;-65
2024/01/07 06:14:19;;;;;;;13.90;8.00;;;;;;;2.46;81.48;99048.77;78480;1292;3050435;-65
2024/01/07 06:16:49;;;;;;;13.40;7.40;;;;;;;2.40;81.44;99048.13;79701;1298;3012767;-68
2024/01/07 06:19:18;;;;;;;13.50;7.80;;;;;;;2.33;81.83;99054.23;79185;1292;3011421;-67
2024/01/07 06:21:45;;;;;;;13.80;6.30;;;;;;;2.19;82.07;99055.04;79719;1297;3019237;-66
2024/01/07 06:24:11;;;;;;;14.80;7.70;;;;;;;2.80;81.64;99056.77;79782;1292;3013377;-71
2024/01/07 06:26:40;;;;;;;16.50;8.70;;;;;;;3.25;79.20;99058.11;78456;1294;3026544;-66
2024/01/07 06:29:09;;;;;;;14.90;8.90;;;;;;;3.27;77.83;99058.04;79826;1295;3012999;-65
2024/01/07 06:31:48;;;;;;;14.00;8.70;;;;;;;3.13;77.63;99057.52;79145;1295;3011974;-67
2024/01/07 06:34:16;;;;;;;18.80;10.20;;;;;;;3.03;78.04;99048.52;78578;1295;3052987;-67
2024/01/07 06:36:43;;;;;;;16.10;9.90;;;;;;;2.83;77.56;99039.41;79701;1295;3013365;-65
2024/01/07 06:39:09;;;;;;;17.70;9.90;;;;;;;2.57;77.61;99043.24;79707;1298;3011651;-66
2024/01/07 06:41:37;;;;;;;19.40;9.80;;;;;;;2.51;77.68;99042.58;78252;1298;3028108;-66
2024/01/07 06:44:04;;;;;;;20.90;11.10;;;;;;;2.35;78.03;99050.92;79609;1298;3013010;-68
2024/01/07 06:46:31;;;;;;;19.80;10.80;;;;;;;2.29;78.47;99044.89;79665;1297;3013060;-67
2024/01/07 06:48:58;;;;;;;20.50;9.90;;;;;;;2.21;78.14;99052.94;78438;1298;3026308;-66
2024/01/07 06:51:25;;;;;;;17.70;9.70;;;;;;;2.09;78.34;99048.29;79607;1298;3013263;-66
2024/01/07 06:53:52;;;;;;;19.30;10.30;;;;;;;2.07;77.98;99040.75;79579;1298;3011654;-67
2024/01/07 06:56:20;;;;;;;19.40;10.20;;;;;;;1.96;78.12;99044.23;78376;1295;3026258;-68
2024/01/07 06:58:47;;;;;;;18.70;10.40;;;;;;;1.89;78.44;99043.41;79622;1295;3012950;-68
2024/01/07 07:01:17;;;;;;;19.30;10.20;;;;;;;1.71;78.49;99045.85;79652;1295;3011755;-69
2024/01/07 07:03:45;;;;;;;18.60;9.50;;;;;;;1.68;78.71;99036.80;78398;1295;3053741;-66
2024/01/07 07:06:12;;;;;;;19.80;10.20;;;;;;;1.63;78.88;99039.21;79648;1298;3011835;-67
2024/01/07 07:08:40;;;;;;;19.80;10.50;;;;;;;1.57;79.26;99021.26;79737;1298;3011832;-67
2024/01/07 07:11:08;;;;;;;20.60;10.50;;;;;;;1.62;79.14;99027.83;78303;1295;3067922;-66
2024/01/07 07:13:35;;;;;;;17.50;9.50;;;;;;;1.51;79.12;99027.31;79662;1295;3013272;-68
2024/01/07 07:16:02;;;;;;;18.30;10.00;;;;;;;1.55;79.38;99032.38;79697;1295;3013295;-67
2024/01/07 07:18:30;;;;;;;16.20;9.60;;;;;;;1.55;79.01;99041.53;78325;1298;3024829;-67
2024/01/07 07:20:57;;;;;;;17.90;10.20;;;;;;;1.44;78.58;99041.16;79727;1298;3013287;-67
2024/01/07 07:23:24;;;;;;;18.70;9.60;;;;;;;1.40;78.33;99042.84;79598;1298;3011591;-66
2024/01/07 07:25:52;;;;;;;17.20;8.80;;;;;;;1.46;78.09;99049.91;78403;1298;3026075;-67
2024/01/07 07:28:18;;;;;;;18.20;9.30;;;;;;;1.39;78.04;99049.27;79739;1295;3013962;-68
2024/01/07 07:30:45;;;;;;;17.20;9.30;;;;;;;1.28;78.00;99050.95;79583;1295;3013721;-68
2024/01/07 07:33:13;;;;;;;15.60;8.50;;;;;;;1.27;77.86;99060.30;78357;1294;3027788;-66
2024/01/07 07:35:41;;;;;;;18.00;9.30;;;;;;;1.37;77.53;99072.27;79602;1298;3012952;-68
2024/01/07 07:38:08;;;;;;;14.70;8.30;;;;;;;1.28;77.23;99079.08;79649;1298;3011745;-67
2024/01/07 07:40:36;;;;;;;16.10;8.70;;;;;;;1.00;77.70;99082.11;78364;1296;3069597;-67
2024/01/07 07:43:03;;;;;;;16.00;9.40;;;;;;;1.08;78.23;99089.48;79625;1298;3013414;-67
2024/01/07 07:45:29;;;;;;;16.90;9.30;;;;;;;1.01;78.63;99082.94;79753;1295;3011892;-67
2024/01/07 07:47:57;;;;;;;16.50;8.60;;;;;;;1.09;78.31;99072.91;78424;1296;3026512;-67
2024/01/07 07:50:24;;;;;;;16.30;9.60;;;;;;;1.07;78.10;99071.05;79634;1298;3013766;-67
2024/01/07 07:52:50;;;;;;;17.30;9.40;;;;;;;0.96;78.60;99070.48;79594;1298;3011463;-67
2024/01/07 07:55:19;;;;;;;17.40;9.10;;;;;;;0.90;79.01;99072.39;78400;1301;3027973;-68
2024/01/07 07:57:46;;;;;;;17.80;9.10;;;;;;;0.92;79.02;99068.36;79702;1296;3018400;-65
2024/01/07 08:00:13;;;;;;;17.70;9.60;;;;;;;0.93;78.81;99067.48;79759;1294;3012124;-70
2024/01/07 08:02:41;;;;;;;16.70;8.90;;;;;;;0.90;78.60;99065.84;78358;1295;3026120;-67
2024/01/07 08:05:08;;;;;;;17.20;9.50;;;;;;;0.95;78.30;99077.09;79806;1295;3014809;-67
2024/01/07 08:07:35;;;;;;;17.20;8.80;;;;;;;0.97;78.21;99083.90;79693;1298;3011542;-70
2024/01/07 08:10:03;;;;;;;17.80;8.90;;;;;;;0.93;78.15;99084.40;78467;1296;3026472;-68
2024/01/07 08:12:30;;;;;;;16.30;8.90;;;;;;;0.99;78.24;99076.45;79770;1298;3013294;-68
2024/01/07 08:14:56;;;;;;;18.60;10.00;;;;;;;1.02;78.13;99080.34;79654;1294;3011645;-66
2024/01/07 08:17:25;;;;;;;20.90;10.10;;;;;;;0.96;78.42;99090.66;78210;1299;3052938;-67
2024/01/07 08:19:52;;;;;;;16.90;9.10;;;;;;;0.88;78.59;99093.65;79550;1299;3014777;-65
2024/01/07 08:22:19;;;;;;;19.10;9.40;;;;;;;0.83;78.46;99089.98;79629;1298;3012535;-65
2024/01/07 08:24:47;;;;;;;21.00;10.10;;;;;;;0.76;78.47;99090.17;78315;1301;3068751;-72
2024/01/07 08:27:13;;;;;;;18.30;9.60;;;;;;;0.79;78.35;99095.80;79644;1295;3018899;-68
2024/01/07 08:29:43;;;;;;;18.10;9.80;;;;;;;0.79;78.05;99098.37;79535;1298;3011712;-78
2024/01/07 08:32:12;;;;;;;18.60;9.00;;;;;;;0.82;77.62;99092.60;78353;1300;3053601;-69
2024/01/07 08:34:42;;;;;;;18.90;9.70;;;;;;;0.80;77.27;99089.21;79560;1298;3013156;-73
2024/01/07 08:37:10;;;;;;;18.00;9.90;;;;;;;0.80;77.25;99091.98;78389;1296;3051095;-69
2024/01/07 08:39:37;;;;;;;16.40;9.20;;;;;;;0.71;77.26;99102.73;79427;1298;3011449;-68
2024/01/07 08:42:03;;;;;;;17.20;9.10;;;;;;;0.74;77.34;99104.70;79499;1296;3011694;-68
2024/01/07 08:44:32;;;;;;;19.80;9.50;;;;;;;0.83;77.52;99096.71;78328;1295;3049250;-73
2024/01/07 08:47:00;;;;;;;17.00;8.60;;;;;;;0.87;77.09;99088.66;79607;1301;3013993;-71
2024/01/07 08:49:30;;;;;;;14.20;7.80;;;;;;;0.91;76.61;99083.40;79638;1295;3013205;-69
2024/01/07 08:51:59;;;;;;;17.10;9.10;;;;;;;0.86;76.61;99081.46;78628;1298;3052029;-75
2024/01/07 08:54:25;;;;;;;16.30;8.30;;;;;;;0.85;76.54;99087.52;79865;1298;3011984;-71
2024/01/07 08:56:52;;;;;;;16.20;9.40;;;;;;;0.96;76.84;99096.17;79651;1298;3011609;-67
2024/01/07 08:59:20;;;;;;;17.00;9.10;;;;;;;0.93;76.30;99098.36;78405;1298;3026270;-70
2024/01/07 09:01:46;;;;;;;13.70;8.20;;;;;;;0.82;76.71;99107.24;79636;1297;3013277;-79
2024/01/07 09:04:13;;;;;;;16.00;8.80;;;;;;;0.84;77.12;99109.44;79902;1298;3011672;-67
2024/01/07 09:06:41;;;;;;;14.30;8.40;;;;;;;0.89;77.07;99104.48;78911;1297;3025038;-69
2024/01/07 09:09:09;;;;;;;14.80;8.40;;;;;;;0.91;76.61;99094.08;80016;1297;3013656;-70
2024/01/07 09:11:36;;;;;;;16.80;8.80;;;;;;;0.86;76.70;99076.45;79631;1294;3011636;-70
2024/01/07 09:14:04;;;;;;;15.50;8.90;;;;;;;0.74;76.82;99071.27;78485;1298;3049889;-69
2024/01/07 09:16:31;;;;;;;16.70;9.00;;;;;;;0.77;76.81;99070.85;79864;1298;3013342;-72
2024/01/07 09:18:58;;;;;;;17.60;9.10;;;;;;;0.75;76.72;99075.89;79619;1295;3013708;-63
2024/01/07 09:21:25;;;;;;;15.50;8.90;;;;;;;0.70;76.97;99076.88;78246;1297;3026259;-68
2024/01/07 09:23:52;;;;;;;17.00;8.70;;;;;;;0.71;76.98;99077.89;79894;1298;3013385;-69
2024/01/07 09:26:19;;;;;;;15.80;9.00;;;;;;;0.72;76.86;99082.69;82061;1295;3011187;-71
2024/01/07 09:28:47;;;;;;;16.00;9.00;;;;;;;0.81;76.82;99082.28;80810;1295;3025840;-70
2024/01/07 09:31:13;;;;;;;18.50;9.40;;;;;;;0.94;77.08;99078.99;82051;1294;3019164;-70
2024/01/07 09:33:40;;;;;;;17.00;9.60;;;;;;;1.05;76.59;99075.59;81904;1298;3011235;-71
2024/01/07 09:36:08;;;;;;;16.70;9.70;;;;;;;1.06;76.07;99059.53;78406;1297;3024950;-67
2024/01/07 09:38:35;;;;;;;18.80;9.30;;;;;;;0.94;75.80;99056.23;79760;1298;3021096;-71
2024/01/07 09:41:02;;;;;;;17.80;9.70;;;;;;;0.81;76.20;99049.36;79655;1297;3012514;-70
2024/01/07 09:43:30;;;;;;;18.90;10.00;;;;;;;0.64;76.56;99044.96;78390;1298;3049012;-68
2024/01/07 09:45:58;;;;;;;20.40;10.20;;;;;;;0.71;76.87;99041.33;79966;1295;3018435;-70
2024/01/07 09:48:25;;;;;;;15.80;8.60;;;;;;;0.75;76.65;99049.16;79639;1301;3011771;-74
2024/01/07 09:50:53;;;;;;;17.00;9.60;;;;;;;0.67;76.71;99058.52;78301;1301;3051985;-74
2024/01/07 09:53:20;;;;;;;16.20;9.60;;;;;;;0.55;76.75;99078.15;79619;1298;3013118;-74
2024/01/07 09:56:01;;;;;;;20.00;9.10;;;;;;;0.56;77.35;99086.05;79814;1298;3011995;-69
2024/01/07 09:58:29;;;;;;;15.80;9.30;;;;;;;0.68;77.11;99077.63;78445;1295;3049121;-67
2024/01/07 10:00:55;;;;;;;17.10;9.40;;;;;;;0.79;76.97;99067.66;79587;1295;3013509;-71
2024/01/07 10:03:22;;;;;;;16.20;8.60;;;;;;;0.71;76.46;99048.91;79415;1298;3013688;-71
2024/01/07 10:05:50;;;;;;;16.30;9.10;;;;;;;0.72;76.65;99043.55;78464;1296;3026545;-70
2024/01/07 10:08:17;;;;;;;17.10;8.90;;;;;;;0.70;76.95;99042.76;79686;1298;3019259;-68
2024/01/07 10:10:44;;;;;;;17.00;9.60;;;;;;;0.64;76.81;99044.28;79638;1295;3011635;-69
2024/01/07 10:13:12;;;;;;;18.40;10.20;;;;;;;0.61;77.25;99043.16;78517;1298;3025981;-67
2024/01/07 10:15:38;;;;;;;16.00;8.90;;;;;;;0.68;77.35;99030.91;79756;1297;3013137;-71
2024/01/07 10:18:06;;;;;;;18.60;9.70;;;;;;;0.61;77.33;99034.02;79629;1298;3012837;-68
2024/01/07 10:20:34;;;;;;;16.80;9.10;;;;;;;0.61;76.83;99042.30;78441;1299;3051405;-71
2024/01/07 10:23:02;;;;;;;19.10;8.90;;;;;;;0.69;76.96;99028.83;79635;1294;3012894;-70
2024/01/07 10:25:35;;;;;;;17.00;9.00;;;;;;;0.71;76.45;99023.42;79641;1298;3013695;-67
2024/01/07 10:28:03;;;;;;;14.60;8.10;;;;;;;0.61;76.40;99021.79;78333;1298;3049716;-72
2024/01/07 10:30:30;;;;;;;15.50;7.70;;;;;;;0.57;76.12;99028.62;79960;1295;3013280;-70
2024/01/07 10:32:59;;;;;;;14.80;7.30;;;;;;;0.59;76.09;99027.38;79673;1298;3012942;-73
2024/01/07 10:35:33;;;;;;;18.20;6.80;;;;;;;0.53;76.10;99018.73;78562;1298;3050739;-72
2024/01/07 10:38:03;;;;;;;15.60;7.80;;;;;;;0.47;76.12;99006.31;79594;1295;3012916;-69
2024/01/07 10:40:32;;;;;;;15.20;7.50;;;;;;;0.26;76.28;99003.08;78445;1305;3052231;-68
2024/01/07 10:42:59;;;;;;;16.80;7.40;;;;;;;0.15;76.92;98996.27;80187;1295;3013407;-65
2024/01/07 10:45:25;;;;;;;15.90;7.50;;;;;;;0.31;77.07;98992.61;79879;1295;3011966;-66
2024/01/07 10:47:54;;;;;;;16.90;8.20;;;;;;;0.44;77.06;98986.05;78669;1295;3051518;-65
2024/01/07 10:50:21;;;;;;;11.60;6.80;;;;;;;0.37;76.54;98983.30;79816;1298;3012902;-66
2024/01/07 10:52:57;;;;;;;14.80;6.90;;;;;;;0.43;76.54;98987.27;79442;1299;3011635;-66
2024/01/07 10:55:26;;;;;;;15.00;7.10;;;;;;;0.45;76.63;98980.85;78721;1298;3051326;-65
2024/01/07 10:57:53;;;;;;;13.90;7.20;;;;;;;0.45;76.23;98976.20;79693;1298;3013868;-65
2024/01/07 11:00:20;;;;;;;14.30;6.60;;;;;;;0.46;76.37;98971.85;79548;1296;3013522;-66
2024/01/07 11:03:04;;;;;;;13.40;6.90;;;;;;;0.32;76.48;98975.52;78472;1298;3050190;-66
2024/01/07 11:05:50;;;;;;;14.20;7.10;;;;;;;0.04;76.86;98984.67;78448;1298;3053043;-65
2024/01/07 11:08:18;;;;;;;12.90;7.40;;;;;;;0.05;77.58;98988.61;78281;1299;3053061;-65
2024/01/07 11:10:53;;;;;;;12.90;6.90;;;;;;;0.11;77.56;98999.64;79694;1298;3012940;-65
2024/01/07 11:13:34;;;;;;;11.90;6.50;;;;;;;0.09;77.11;99003.85;78648;1298;3056658;-65
2024/01/07 11:16:03;;;;;;;11.30;6.10;;;;;;;0.06;76.83;99001.34;78603;1295;3049150;-65
2024/01/07 11:18:33;;;;;;;12.30;6.40;;;;;;;0.13;76.73;99012.18;79766;1298;3012715;-65